createdAt,value
2024-02-16T00:00:31.188Z,10.38
2024-02-16T00:05:35.830Z,10.35
2024-02-16T00:10:40.903Z,10.33
2024-02-16T00:15:43.861Z,10.36
2024-02-16T00:20:47.941Z,10.42
2024-02-16T00:25:54.338Z,10.49
2024-02-16T00:31:02.572Z,10.55
2024-02-16T00:36:07.191Z,10.57
2024-02-16T00:41:17.985Z,10.56
2024-02-16T00:46:26.862Z,10.57
2024-02-16T00:51:31.366Z,10.55
2024-02-16T00:56:34.459Z,10.60
2024-02-16T01:01:37.855Z,10.58
2024-02-16T01:06:41.167Z,10.58
2024-02-16T01:11:43.780Z,10.60
2024-02-16T01:16:47.852Z,10.62
2024-02-16T01:21:54.648Z,10.61
2024-02-16T01:27:00.432Z,10.63
2024-02-16T01:32:04.746Z,10.62
2024-02-16T01:37:07.443Z,10.63
2024-02-16T01:42:10.638Z,10.62
2024-02-16T01:47:17.933Z,10.61
2024-02-16T01:52:26.891Z,10.60
2024-02-16T01:57:31.191Z,10.57
2024-02-16T02:02:34.155Z,10.54
2024-02-16T02:07:37.524Z,10.46
2024-02-16T02:12:42.127Z,10.42
2024-02-16T02:17:45.656Z,10.40
2024-02-16T02:22:48.378Z,10.35
2024-02-16T02:27:53.643Z,10.31
2024-02-16T02:33:01.489Z,10.26
2024-02-16T02:38:07.218Z,10.20
2024-02-16T02:43:12.006Z,10.21
2024-02-16T02:48:17.116Z,10.17
2024-02-16T02:53:21.236Z,10.18
2024-02-16T02:58:53.722Z,10.15
2024-02-16T03:04:02.786Z,10.11
2024-02-16T03:09:09.403Z,10.11
2024-02-16T03:14:16.734Z,10.12
2024-02-16T03:19:20.468Z,10.06
2024-02-16T03:24:25.667Z,10.02
2024-02-16T03:29:28.666Z,10.00
2024-02-16T03:34:32.282Z,10.00
2024-02-16T03:39:35.245Z,9.94
2024-02-16T03:44:37.988Z,9.92
2024-02-16T03:49:40.732Z,9.90
2024-02-16T03:54:45.203Z,9.84
2024-02-16T03:59:47.834Z,9.83
2024-02-16T04:04:50.781Z,9.76
2024-02-16T04:09:54.275Z,9.76
2024-02-16T04:15:01.974Z,9.70
2024-02-16T04:20:06.430Z,9.70
2024-02-16T04:25:11.263Z,9.67
2024-02-16T04:30:14.460Z,9.65
2024-02-16T04:35:20.660Z,9.66
2024-02-16T04:40:23.506Z,9.66
2024-02-16T04:45:27.444Z,9.67
2024-02-16T04:50:37.984Z,9.64
2024-02-16T04:55:41.161Z,9.60
2024-02-16T05:00:44.195Z,9.63
2024-02-16T05:05:47.313Z,9.64
2024-02-16T05:10:50.307Z,9.68
2024-02-16T05:15:56.366Z,9.73
2024-02-16T05:20:59.560Z,9.77
2024-02-16T05:26:09.316Z,9.85
2024-02-16T05:31:23.012Z,9.85
2024-02-16T05:36:29.340Z,9.87
2024-02-16T05:41:32.276Z,9.90
2024-02-16T05:46:35.366Z,9.92
2024-02-16T05:51:41.058Z,9.95
2024-02-16T05:56:50.957Z,9.94
2024-02-16T06:01:58.290Z,9.94
2024-02-16T06:07:02.394Z,9.93
2024-02-16T06:12:09.075Z,9.91
2024-02-16T06:17:16.818Z,9.88
2024-02-16T06:22:24.944Z,9.88
2024-02-16T06:27:27.462Z,9.87
2024-02-16T06:32:30.635Z,9.84
2024-02-16T06:37:33.427Z,9.83
2024-02-16T06:42:36.920Z,9.80
2024-02-16T06:47:43.393Z,9.73
2024-02-16T06:52:49.105Z,9.65
2024-02-16T06:57:53.660Z,9.60
2024-02-16T07:02:59.207Z,9.56
2024-02-16T07:08:03.752Z,9.50
2024-02-16T07:13:07.742Z,9.46
2024-02-16T07:18:12.056Z,9.45
2024-02-16T07:23:20.793Z,9.47
2024-02-16T07:28:23.930Z,9.44
2024-02-16T07:33:38.436Z,9.47
2024-02-16T07:38:41.624Z,9.54
2024-02-16T07:43:45.092Z,9.61
2024-02-16T07:48:48.064Z,9.68
2024-02-16T07:53:51.169Z,9.74
2024-02-16T07:58:54.520Z,9.79
2024-02-16T08:03:58.049Z,9.81
2024-02-16T08:09:01.212Z,9.84
2024-02-16T08:14:08.675Z,9.84
2024-02-16T08:19:11.531Z,9.82
2024-02-16T08:24:15.079Z,9.81
2024-02-16T08:29:18.053Z,9.82
2024-02-16T08:34:21.520Z,9.85
2024-02-16T08:39:28.106Z,9.93
2024-02-16T08:44:31.735Z,10.00
2024-02-16T08:49:44.334Z,10.10
2024-02-16T08:54:48.583Z,10.18
2024-02-16T08:59:51.705Z,10.26
2024-02-16T09:04:55.676Z,10.38
2024-02-16T09:10:04.555Z,10.58
2024-02-16T09:15:07.547Z,10.83
2024-02-16T09:20:11.053Z,11.11
2024-02-16T09:25:16.490Z,11.49
2024-02-16T09:30:19.703Z,12.40
2024-02-16T09:35:22.927Z,13.83
2024-02-16T09:40:25.545Z,14.71
2024-02-16T09:45:37.514Z,15.16
2024-02-16T09:50:42.788Z,16.05
2024-02-16T09:55:45.376Z,16.50
2024-02-16T10:00:56.735Z,17.11
2024-02-16T10:06:06.579Z,16.82
2024-02-16T10:11:10.242Z,17.25
2024-02-16T10:16:13.337Z,16.91
2024-02-16T10:21:32.906Z,17.56
2024-02-16T10:26:42.240Z,17.95
2024-02-16T10:31:44.875Z,18.35
2024-02-16T10:36:50.004Z,18.63
2024-02-16T10:41:54.434Z,18.22
2024-02-16T10:46:58.443Z,18.81
2024-02-16T10:52:01.955Z,18.94
2024-02-16T10:57:09.200Z,18.72
2024-02-16T11:02:12.153Z,17.29
2024-02-16T11:07:19.527Z,16.68
2024-02-16T11:12:23.119Z,16.63
2024-02-16T11:17:26.923Z,16.71
2024-02-16T11:22:29.913Z,16.72
2024-02-16T11:27:36.515Z,16.20
2024-02-16T11:32:39.770Z,15.97
2024-02-16T11:37:46.805Z,16.39
2024-02-16T11:42:50.102Z,16.27
2024-02-16T11:47:53.151Z,16.20
2024-02-16T11:52:55.946Z,16.10
2024-02-16T11:58:00.096Z,15.93
2024-02-16T12:03:04.636Z,15.67
2024-02-16T12:08:09.737Z,15.56
2024-02-16T12:13:12.896Z,15.44
2024-02-16T12:18:26.282Z,15.35
2024-02-16T12:23:32.568Z,15.43
2024-02-16T12:28:39.208Z,15.35
2024-02-16T12:33:43.841Z,15.52
2024-02-16T12:38:49.896Z,15.57
2024-02-16T12:43:52.499Z,15.45
2024-02-16T12:48:55.781Z,15.48
2024-02-16T12:53:59.057Z,15.52
2024-02-16T12:59:03.575Z,15.64
2024-02-16T13:04:08.783Z,15.77
2024-02-16T13:09:12.768Z,15.59
2024-02-16T13:14:17.837Z,15.51
2024-02-16T13:19:20.668Z,15.41
2024-02-16T13:24:23.697Z,15.29
2024-02-16T13:29:27.097Z,15.10
2024-02-16T13:34:30.159Z,14.93
2024-02-16T13:39:33.557Z,15.29
2024-02-16T13:44:38.105Z,15.47
2024-02-16T13:49:41.710Z,15.67
2024-02-16T13:54:45.023Z,15.55
2024-02-16T13:59:49.362Z,15.70
2024-02-16T14:04:54.532Z,15.74
2024-02-16T14:09:59.732Z,15.80
2024-02-16T14:15:02.493Z,15.76
2024-02-16T14:20:08.368Z,15.75
2024-02-16T14:25:16.301Z,15.62
2024-02-16T14:30:21.759Z,15.74
2024-02-16T14:35:24.528Z,15.89
2024-02-16T14:40:27.279Z,15.77
2024-02-16T14:45:30.001Z,15.82
2024-02-16T14:50:36.139Z,15.75
2024-02-16T14:55:39.042Z,15.74
2024-02-16T15:00:41.782Z,15.68
2024-02-16T15:05:45.095Z,15.69
2024-02-16T15:10:47.707Z,15.66
2024-02-16T15:15:50.558Z,15.93
2024-02-16T15:20:55.081Z,15.94
2024-02-16T15:25:59.107Z,15.93
2024-02-16T15:31:03.828Z,15.91
2024-02-16T15:36:15.001Z,15.87
2024-02-16T15:41:18.349Z,15.94
2024-02-16T15:46:20.510Z,15.94
2024-02-16T15:51:28.408Z,15.85
2024-02-16T15:56:33.340Z,15.77
2024-02-16T16:01:37.104Z,15.68
2024-02-16T16:06:40.567Z,15.75
2024-02-16T16:11:50.339Z,15.73
2024-02-16T16:16:55.264Z,15.76
2024-02-16T16:22:05.872Z,15.86
2024-02-16T16:27:09.363Z,15.92
2024-02-16T16:32:15.361Z,15.72
2024-02-16T16:37:18.245Z,15.80
2024-02-16T16:42:20.965Z,15.68
2024-02-16T16:47:25.427Z,15.51
2024-02-16T16:52:29.206Z,15.54
2024-02-16T16:57:38.205Z,15.28
2024-02-16T17:02:41.267Z,15.26
2024-02-16T17:07:49.466Z,15.16
2024-02-16T17:13:00.322Z,15.00
2024-02-16T17:18:07.033Z,14.91
2024-02-16T17:23:10.432Z,14.73
2024-02-16T17:28:13.940Z,14.68
2024-02-16T17:33:16.990Z,14.54
2024-02-16T17:38:20.358Z,14.40
2024-02-16T17:43:30.714Z,14.28
2024-02-16T17:48:38.821Z,14.24
2024-02-16T17:53:41.029Z,14.12
2024-02-16T17:58:44.213Z,13.90
2024-02-16T18:03:50.676Z,13.79
2024-02-16T18:08:55.348Z,13.70
2024-02-16T18:13:57.870Z,13.62
2024-02-16T18:19:03.469Z,13.38
2024-02-16T18:24:07.875Z,13.30
2024-02-16T18:29:10.534Z,13.18
2024-02-16T18:34:13.010Z,13.25
2024-02-16T18:39:15.978Z,13.13
2024-02-16T18:44:18.749Z,13.08
2024-02-16T18:49:22.281Z,12.96
2024-02-16T18:54:24.757Z,12.84
2024-02-16T18:59:27.407Z,12.74
2024-02-16T19:04:43.299Z,12.69
2024-02-16T19:09:48.627Z,12.59
2024-02-16T19:14:51.208Z,12.57
2024-02-16T19:19:54.888Z,12.45
2024-02-16T19:24:58.540Z,12.42
2024-02-16T19:30:02.092Z,12.43
2024-02-16T19:35:09.455Z,12.30
2024-02-16T19:40:13.118Z,12.17
2024-02-16T19:45:28.382Z,12.07
2024-02-16T19:50:32.062Z,11.94
2024-02-16T19:55:35.006Z,11.91
2024-02-16T20:00:38.961Z,11.84
2024-02-16T20:05:41.601Z,11.71
2024-02-16T20:10:46.711Z,11.64
2024-02-16T20:15:49.627Z,11.58
2024-02-16T20:21:06.906Z,11.51
2024-02-16T20:26:09.625Z,11.41
2024-02-16T20:31:13.650Z,11.34
2024-02-16T20:36:20.521Z,11.27
2024-02-16T20:41:23.457Z,11.21
2024-02-16T20:46:27.346Z,11.15
2024-02-16T20:51:30.635Z,11.12
2024-02-16T20:56:35.264Z,11.04
2024-02-16T21:01:41.767Z,10.94
2024-02-16T21:06:45.371Z,10.84
2024-02-16T21:11:48.713Z,10.71
2024-02-16T21:16:54.196Z,10.52
2024-02-16T21:21:58.476Z,10.65
2024-02-16T21:27:00.967Z,10.64
2024-02-16T21:32:07.116Z,10.44
2024-02-16T21:37:12.424Z,10.32
2024-02-16T21:42:18.108Z,10.45
2024-02-16T21:47:33.715Z,10.42
2024-02-16T21:52:49.340Z,10.19
2024-02-16T21:57:52.737Z,10.01
2024-02-16T22:02:55.486Z,10.07
2024-02-16T22:07:58.210Z,10.14
2024-02-16T22:13:01.951Z,10.10
2024-02-16T22:18:07.503Z,9.90
2024-02-16T22:23:10.684Z,9.74
2024-02-16T22:28:27.407Z,9.79
2024-02-16T22:33:30.266Z,9.72
2024-02-16T22:38:36.411Z,9.54
2024-02-16T22:43:39.599Z,9.39
2024-02-16T22:48:43.016Z,9.25
2024-02-16T22:53:46.323Z,9.32
2024-02-16T22:58:48.888Z,9.26
2024-02-16T23:03:51.261Z,9.33
2024-02-16T23:08:54.162Z,9.17
2024-02-16T23:13:56.857Z,8.99
2024-02-16T23:18:59.351Z,8.88
2024-02-16T23:24:04.200Z,8.77
2024-02-16T23:29:08.038Z,8.69
2024-02-16T23:34:11.862Z,8.62
2024-02-16T23:39:14.310Z,8.70
2024-02-16T23:44:16.826Z,8.61
2024-02-16T23:49:19.509Z,8.55
2024-02-16T23:54:22.470Z,8.49
2024-02-16T23:59:25.190Z,8.47
